sensor_id;sensor_type;location;lat;lon;timestamp;P1;durP1;ratioP1;P2;durP2;ratioP2
23404;SDS011;11875;49.356;2.718;2023-04-06T00:01:41;33.73;;;17.40;;
23404;SDS011;11875;49.356;2.718;2023-04-06T00:04:07;40.53;;;20.53;;
23404;SDS011;11875;49.356;2.718;2023-04-06T00:06:32;49.17;;;24.47;;
23404;SDS011;11875;49.356;2.718;2023-04-06T00:08:58;45.40;;;21.80;;
23404;SDS011;11875;49.356;2.718;2023-04-06T00:11:25;38.03;;;19.13;;
23404;SDS011;11875;49.356;2.718;2023-04-06T00:13:50;28.20;;;15.23;;
23404;SDS011;11875;49.356;2.718;2023-04-06T00:16:16;28.57;;;16.93;;
23404;SDS011;11875;49.356;2.718;2023-04-06T00:18:42;22.57;;;13.03;;
23404;SDS011;11875;49.356;2.718;2023-04-06T00:21:11;22.73;;;12.97;;
23404;SDS011;11875;49.356;2.718;2023-04-06T00:23:38;20.37;;;12.77;;
23404;SDS011;11875;49.356;2.718;2023-04-06T00:26:04;22.23;;;12.83;;
23404;SDS011;11875;49.356;2.718;2023-04-06T00:28:30;19.93;;;12.13;;
23404;SDS011;11875;49.356;2.718;2023-04-06T00:30:55;17.03;;;11.83;;
23404;SDS011;11875;49.356;2.718;2023-04-06T00:33:21;14.47;;;10.40;;
23404;SDS011;11875;49.356;2.718;2023-04-06T00:35:48;16.90;;;11.60;;
23404;SDS011;11875;49.356;2.718;2023-04-06T00:38:14;24.43;;;10.93;;
23404;SDS011;11875;49.356;2.718;2023-04-06T00:40:40;18.57;;;12.33;;
23404;SDS011;11875;49.356;2.718;2023-04-06T00:43:06;16.83;;;11.37;;
23404;SDS011;11875;49.356;2.718;2023-04-06T00:45:33;21.63;;;11.20;;
23404;SDS011;11875;49.356;2.718;2023-04-06T00:47:59;20.30;;;11.93;;
23404;SDS011;11875;49.356;2.718;2023-04-06T00:50:26;19.10;;;12.83;;
23404;SDS011;11875;49.356;2.718;2023-04-06T00:52:52;19.10;;;13.03;;
23404;SDS011;11875;49.356;2.718;2023-04-06T00:55:19;18.87;;;12.93;;
23404;SDS011;11875;49.356;2.718;2023-04-06T00:57:45;20.20;;;13.73;;
23404;SDS011;11875;49.356;2.718;2023-04-06T01:00:11;21.20;;;14.47;;
23404;SDS011;11875;49.356;2.718;2023-04-06T01:02:37;18.97;;;13.80;;
23404;SDS011;11875;49.356;2.718;2023-04-06T01:05:03;18.90;;;12.53;;
23404;SDS011;11875;49.356;2.718;2023-04-06T01:07:29;17.60;;;12.70;;
23404;SDS011;11875;49.356;2.718;2023-04-06T01:09:55;17.67;;;12.00;;
23404;SDS011;11875;49.356;2.718;2023-04-06T01:12:21;14.70;;;10.57;;
23404;SDS011;11875;49.356;2.718;2023-04-06T01:14:46;17.67;;;10.77;;
23404;SDS011;11875;49.356;2.718;2023-04-06T01:17:12;22.93;;;11.03;;
23404;SDS011;11875;49.356;2.718;2023-04-06T01:19:38;17.43;;;10.93;;
23404;SDS011;11875;49.356;2.718;2023-04-06T01:22:05;13.57;;;9.13;;
23404;SDS011;11875;49.356;2.718;2023-04-06T01:24:31;16.40;;;11.73;;
23404;SDS011;11875;49.356;2.718;2023-04-06T01:26:57;19.30;;;13.13;;
23404;SDS011;11875;49.356;2.718;2023-04-06T01:29:23;16.87;;;11.80;;
23404;SDS011;11875;49.356;2.718;2023-04-06T01:31:49;14.60;;;9.90;;
23404;SDS011;11875;49.356;2.718;2023-04-06T01:34:14;13.67;;;9.47;;
23404;SDS011;11875;49.356;2.718;2023-04-06T01:36:40;12.23;;;8.80;;
23404;SDS011;11875;49.356;2.718;2023-04-06T01:39:06;14.67;;;10.40;;
23404;SDS011;11875;49.356;2.718;2023-04-06T01:41:31;17.60;;;11.23;;
23404;SDS011;11875;49.356;2.718;2023-04-06T01:43:57;20.10;;;13.80;;
23404;SDS011;11875;49.356;2.718;2023-04-06T01:46:23;15.47;;;11.07;;
23404;SDS011;11875;49.356;2.718;2023-04-06T01:48:49;18.43;;;13.37;;
23404;SDS011;11875;49.356;2.718;2023-04-06T01:51:14;20.07;;;13.97;;
23404;SDS011;11875;49.356;2.718;2023-04-06T01:53:40;20.27;;;12.97;;
23404;SDS011;11875;49.356;2.718;2023-04-06T01:56:06;17.63;;;10.80;;
23404;SDS011;11875;49.356;2.718;2023-04-06T01:58:31;14.53;;;9.60;;
23404;SDS011;11875;49.356;2.718;2023-04-06T02:00:57;17.03;;;10.33;;
23404;SDS011;11875;49.356;2.718;2023-04-06T02:03:23;19.90;;;10.97;;
23404;SDS011;11875;49.356;2.718;2023-04-06T02:05:48;17.87;;;11.53;;
23404;SDS011;11875;49.356;2.718;2023-04-06T02:08:14;17.00;;;11.83;;
23404;SDS011;11875;49.356;2.718;2023-04-06T02:10:40;16.33;;;11.10;;
23404;SDS011;11875;49.356;2.718;2023-04-06T02:13:05;20.90;;;12.67;;
23404;SDS011;11875;49.356;2.718;2023-04-06T02:15:31;17.23;;;11.83;;
23404;SDS011;11875;49.356;2.718;2023-04-06T02:17:57;17.50;;;10.40;;
23404;SDS011;11875;49.356;2.718;2023-04-06T02:20:23;13.17;;;9.90;;
23404;SDS011;11875;49.356;2.718;2023-04-06T02:22:49;13.60;;;9.07;;
23404;SDS011;11875;49.356;2.718;2023-04-06T02:25:15;12.63;;;8.63;;
23404;SDS011;11875;49.356;2.718;2023-04-06T02:27:41;15.50;;;9.83;;
23404;SDS011;11875;49.356;2.718;2023-04-06T02:30:06;13.20;;;9.50;;
23404;SDS011;11875;49.356;2.718;2023-04-06T02:32:32;14.80;;;9.47;;
23404;SDS011;11875;49.356;2.718;2023-04-06T02:34:58;12.10;;;9.10;;
23404;SDS011;11875;49.356;2.718;2023-04-06T02:37:25;14.10;;;8.97;;
23404;SDS011;11875;49.356;2.718;2023-04-06T02:39:50;13.40;;;9.23;;
23404;SDS011;11875;49.356;2.718;2023-04-06T02:42:16;15.60;;;10.17;;
23404;SDS011;11875;49.356;2.718;2023-04-06T02:44:42;16.47;;;10.67;;
23404;SDS011;11875;49.356;2.718;2023-04-06T02:47:08;18.00;;;11.23;;
23404;SDS011;11875;49.356;2.718;2023-04-06T02:49:34;15.27;;;9.90;;
23404;SDS011;11875;49.356;2.718;2023-04-06T02:51:59;11.50;;;8.80;;
23404;SDS011;11875;49.356;2.718;2023-04-06T02:54:25;15.40;;;11.27;;
23404;SDS011;11875;49.356;2.718;2023-04-06T02:56:51;19.27;;;13.03;;
23404;SDS011;11875;49.356;2.718;2023-04-06T02:59:16;17.77;;;12.83;;
23404;SDS011;11875;49.356;2.718;2023-04-06T03:01:42;22.90;;;13.67;;
23404;SDS011;11875;49.356;2.718;2023-04-06T03:04:08;21.80;;;14.03;;
23404;SDS011;11875;49.356;2.718;2023-04-06T03:06:33;22.37;;;14.27;;
23404;SDS011;11875;49.356;2.718;2023-04-06T03:08:59;20.40;;;13.03;;
23404;SDS011;11875;49.356;2.718;2023-04-06T03:11:25;34.93;;;14.30;;
23404;SDS011;11875;49.356;2.718;2023-04-06T03:13:51;18.23;;;12.27;;
23404;SDS011;11875;49.356;2.718;2023-04-06T03:16:17;21.10;;;12.90;;
23404;SDS011;11875;49.356;2.718;2023-04-06T03:18:42;20.37;;;13.27;;
23404;SDS011;11875;49.356;2.718;2023-04-06T03:21:10;19.83;;;12.70;;
23404;SDS011;11875;49.356;2.718;2023-04-06T03:23:35;20.23;;;13.33;;
23404;SDS011;11875;49.356;2.718;2023-04-06T03:26:01;19.37;;;12.30;;
23404;SDS011;11875;49.356;2.718;2023-04-06T03:28:27;17.53;;;12.00;;
23404;SDS011;11875;49.356;2.718;2023-04-06T03:30:53;17.80;;;12.60;;
23404;SDS011;11875;49.356;2.718;2023-04-06T03:33:19;16.97;;;11.50;;
23404;SDS011;11875;49.356;2.718;2023-04-06T03:35:45;16.70;;;12.03;;
23404;SDS011;11875;49.356;2.718;2023-04-06T03:38:10;17.67;;;11.90;;
23404;SDS011;11875;49.356;2.718;2023-04-06T03:40:36;19.63;;;12.60;;
23404;SDS011;11875;49.356;2.718;2023-04-06T03:43:01;19.03;;;11.93;;
23404;SDS011;11875;49.356;2.718;2023-04-06T03:45:27;19.47;;;12.63;;
23404;SDS011;11875;49.356;2.718;2023-04-06T03:47:53;18.43;;;12.57;;
23404;SDS011;11875;49.356;2.718;2023-04-06T03:50:18;20.27;;;12.97;;
23404;SDS011;11875;49.356;2.718;2023-04-06T03:52:44;20.70;;;13.17;;
23404;SDS011;11875;49.356;2.718;2023-04-06T03:55:10;19.33;;;13.37;;
23404;SDS011;11875;49.356;2.718;2023-04-06T03:57:35;15.17;;;10.90;;
23404;SDS011;11875;49.356;2.718;2023-04-06T04:00:02;16.47;;;11.37;;
23404;SDS011;11875;49.356;2.718;2023-04-06T04:02:28;17.37;;;11.20;;
23404;SDS011;11875;49.356;2.718;2023-04-06T04:04:54;13.30;;;10.07;;
23404;SDS011;11875;49.356;2.718;2023-04-06T04:07:20;15.40;;;10.80;;
23404;SDS011;11875;49.356;2.718;2023-04-06T04:09:45;16.80;;;10.90;;
23404;SDS011;11875;49.356;2.718;2023-04-06T04:12:11;20.97;;;12.57;;
23404;SDS011;11875;49.356;2.718;2023-04-06T04:14:36;18.70;;;11.80;;
23404;SDS011;11875;49.356;2.718;2023-04-06T04:17:02;18.80;;;11.77;;
23404;SDS011;11875;49.356;2.718;2023-04-06T04:19:28;16.37;;;11.20;;
23404;SDS011;11875;49.356;2.718;2023-04-06T04:21:53;19.00;;;11.47;;
23404;SDS011;11875;49.356;2.718;2023-04-06T04:24:19;17.70;;;11.83;;
23404;SDS011;11875;49.356;2.718;2023-04-06T04:26:45;19.97;;;11.67;;
23404;SDS011;11875;49.356;2.718;2023-04-06T04:29:10;31.67;;;13.27;;
23404;SDS011;11875;49.356;2.718;2023-04-06T04:31:36;19.80;;;12.10;;
23404;SDS011;11875;49.356;2.718;2023-04-06T04:34:01;18.53;;;12.27;;
23404;SDS011;11875;49.356;2.718;2023-04-06T04:36:27;22.40;;;13.10;;
23404;SDS011;11875;49.356;2.718;2023-04-06T04:38:53;20.03;;;12.43;;
23404;SDS011;11875;49.356;2.718;2023-04-06T04:41:18;20.30;;;12.60;;
23404;SDS011;11875;49.356;2.718;2023-04-06T04:43:44;21.90;;;13.20;;
23404;SDS011;11875;49.356;2.718;2023-04-06T04:46:10;17.60;;;12.10;;
23404;SDS011;11875;49.356;2.718;2023-04-06T04:48:36;18.43;;;12.37;;
23404;SDS011;11875;49.356;2.718;2023-04-06T04:51:02;19.07;;;13.03;;
23404;SDS011;11875;49.356;2.718;2023-04-06T04:53:28;20.10;;;12.57;;
23404;SDS011;11875;49.356;2.718;2023-04-06T04:55:54;18.90;;;12.90;;
23404;SDS011;11875;49.356;2.718;2023-04-06T04:58:20;18.23;;;12.90;;
23404;SDS011;11875;49.356;2.718;2023-04-06T05:00:46;21.60;;;12.80;;
23404;SDS011;11875;49.356;2.718;2023-04-06T05:03:14;20.47;;;13.63;;
23404;SDS011;11875;49.356;2.718;2023-04-06T05:05:51;22.83;;;13.63;;
23404;SDS011;11875;49.356;2.718;2023-04-06T05:08:17;22.90;;;14.53;;
23404;SDS011;11875;49.356;2.718;2023-04-06T05:10:42;27.50;;;16.43;;
23404;SDS011;11875;49.356;2.718;2023-04-06T05:13:09;24.33;;;14.43;;
23404;SDS011;11875;49.356;2.718;2023-04-06T05:15:35;22.00;;;13.60;;
23404;SDS011;11875;49.356;2.718;2023-04-06T05:18:03;19.47;;;13.20;;
23404;SDS011;11875;49.356;2.718;2023-04-06T05:20:29;23.63;;;14.10;;
23404;SDS011;11875;49.356;2.718;2023-04-06T05:22:55;21.87;;;12.90;;
23404;SDS011;11875;49.356;2.718;2023-04-06T05:25:21;18.47;;;13.10;;
23404;SDS011;11875;49.356;2.718;2023-04-06T05:27:46;46.50;;;25.20;;
23404;SDS011;11875;49.356;2.718;2023-04-06T05:30:12;32.23;;;19.20;;
23404;SDS011;11875;49.356;2.718;2023-04-06T05:32:38;54.13;;;28.00;;
23404;SDS011;11875;49.356;2.718;2023-04-06T05:35:04;49.37;;;21.80;;
23404;SDS011;11875;49.356;2.718;2023-04-06T05:37:30;28.97;;;16.77;;
23404;SDS011;11875;49.356;2.718;2023-04-06T05:39:56;39.70;;;20.57;;
23404;SDS011;11875;49.356;2.718;2023-04-06T05:42:22;31.87;;;19.13;;
23404;SDS011;11875;49.356;2.718;2023-04-06T05:44:48;31.07;;;18.17;;
23404;SDS011;11875;49.356;2.718;2023-04-06T05:47:14;22.80;;;15.00;;
23404;SDS011;11875;49.356;2.718;2023-04-06T05:49:41;22.43;;;14.93;;
23404;SDS011;11875;49.356;2.718;2023-04-06T05:52:07;25.37;;;15.63;;
23404;SDS011;11875;49.356;2.718;2023-04-06T05:54:33;23.33;;;15.13;;
23404;SDS011;11875;49.356;2.718;2023-04-06T05:57:01;26.37;;;16.17;;
23404;SDS011;11875;49.356;2.718;2023-04-06T05:59:27;23.60;;;15.27;;
23404;SDS011;11875;49.356;2.718;2023-04-06T06:01:54;23.10;;;14.23;;
23404;SDS011;11875;49.356;2.718;2023-04-06T06:04:20;27.47;;;14.67;;
23404;SDS011;11875;49.356;2.718;2023-04-06T06:06:45;26.70;;;16.00;;
23404;SDS011;11875;49.356;2.718;2023-04-06T06:09:11;21.50;;;14.90;;
23404;SDS011;11875;49.356;2.718;2023-04-06T06:11:37;27.97;;;17.17;;
23404;SDS011;11875;49.356;2.718;2023-04-06T06:14:02;21.70;;;13.53;;
23404;SDS011;11875;49.356;2.718;2023-04-06T06:16:28;23.27;;;14.10;;
23404;SDS011;11875;49.356;2.718;2023-04-06T06:18:54;29.87;;;15.27;;
23404;SDS011;11875;49.356;2.718;2023-04-06T06:21:20;25.13;;;13.73;;
23404;SDS011;11875;49.356;2.718;2023-04-06T06:23:45;22.83;;;14.27;;
23404;SDS011;11875;49.356;2.718;2023-04-06T06:26:13;19.90;;;13.63;;
23404;SDS011;11875;49.356;2.718;2023-04-06T06:28:38;21.90;;;13.27;;
23404;SDS011;11875;49.356;2.718;2023-04-06T06:31:04;25.57;;;14.53;;
23404;SDS011;11875;49.356;2.718;2023-04-06T06:33:30;21.80;;;13.20;;
23404;SDS011;11875;49.356;2.718;2023-04-06T06:35:55;20.93;;;12.90;;
23404;SDS011;11875;49.356;2.718;2023-04-06T06:38:21;20.07;;;12.37;;
23404;SDS011;11875;49.356;2.718;2023-04-06T06:40:47;19.23;;;11.50;;
23404;SDS011;11875;49.356;2.718;2023-04-06T06:43:12;19.37;;;11.93;;
23404;SDS011;11875;49.356;2.718;2023-04-06T06:45:38;19.57;;;11.53;;
23404;SDS011;11875;49.356;2.718;2023-04-06T06:48:04;18.83;;;10.90;;
23404;SDS011;11875;49.356;2.718;2023-04-06T06:50:29;18.03;;;11.53;;
23404;SDS011;11875;49.356;2.718;2023-04-06T06:52:55;19.60;;;11.50;;
23404;SDS011;11875;49.356;2.718;2023-04-06T06:55:21;19.57;;;12.80;;
23404;SDS011;11875;49.356;2.718;2023-04-06T06:57:46;21.10;;;13.23;;
23404;SDS011;11875;49.356;2.718;2023-04-06T07:00:12;24.33;;;15.00;;
23404;SDS011;11875;49.356;2.718;2023-04-06T07:02:39;24.03;;;16.30;;
23404;SDS011;11875;49.356;2.718;2023-04-06T07:05:05;24.00;;;13.93;;
23404;SDS011;11875;49.356;2.718;2023-04-06T07:07:34;21.60;;;14.30;;
23404;SDS011;11875;49.356;2.718;2023-04-06T07:10:00;23.77;;;15.37;;
23404;SDS011;11875;49.356;2.718;2023-04-06T07:12:26;22.47;;;14.93;;
23404;SDS011;11875;49.356;2.718;2023-04-06T07:14:52;27.33;;;14.10;;
23404;SDS011;11875;49.356;2.718;2023-04-06T07:17:17;21.47;;;13.87;;
23404;SDS011;11875;49.356;2.718;2023-04-06T07:19:43;20.50;;;14.70;;
23404;SDS011;11875;49.356;2.718;2023-04-06T07:22:10;19.70;;;13.50;;
23404;SDS011;11875;49.356;2.718;2023-04-06T07:24:35;24.33;;;14.73;;
23404;SDS011;11875;49.356;2.718;2023-04-06T07:27:01;22.03;;;14.00;;
23404;SDS011;11875;49.356;2.718;2023-04-06T07:29:26;25.37;;;14.23;;
23404;SDS011;11875;49.356;2.718;2023-04-06T07:31:53;26.33;;;14.20;;
23404;SDS011;11875;49.356;2.718;2023-04-06T07:34:19;28.30;;;14.60;;
23404;SDS011;11875;49.356;2.718;2023-04-06T07:36:45;20.67;;;13.23;;
23404;SDS011;11875;49.356;2.718;2023-04-06T07:39:11;21.10;;;13.33;;
23404;SDS011;11875;49.356;2.718;2023-04-06T07:41:37;21.03;;;13.60;;
23404;SDS011;11875;49.356;2.718;2023-04-06T07:44:03;20.93;;;13.23;;
23404;SDS011;11875;49.356;2.718;2023-04-06T07:46:29;23.03;;;12.60;;
23404;SDS011;11875;49.356;2.718;2023-04-06T07:48:56;20.13;;;12.97;;
23404;SDS011;11875;49.356;2.718;2023-04-06T07:51:23;19.83;;;13.00;;
23404;SDS011;11875;49.356;2.718;2023-04-06T07:53:50;21.67;;;13.60;;
23404;SDS011;11875;49.356;2.718;2023-04-06T07:56:16;20.20;;;12.80;;
23404;SDS011;11875;49.356;2.718;2023-04-06T07:58:41;19.87;;;13.00;;
23404;SDS011;11875;49.356;2.718;2023-04-06T08:01:07;23.33;;;13.73;;
23404;SDS011;11875;49.356;2.718;2023-04-06T08:03:33;20.80;;;13.63;;
23404;SDS011;11875;49.356;2.718;2023-04-06T08:05:59;22.53;;;13.80;;
23404;SDS011;11875;49.356;2.718;2023-04-06T08:08:25;23.47;;;14.53;;
23404;SDS011;11875;49.356;2.718;2023-04-06T08:10:51;22.83;;;14.47;;
23404;SDS011;11875;49.356;2.718;2023-04-06T08:13:16;22.57;;;13.87;;
23404;SDS011;11875;49.356;2.718;2023-04-06T08:15:42;19.87;;;12.50;;
23404;SDS011;11875;49.356;2.718;2023-04-06T08:18:08;22.23;;;14.00;;
23404;SDS011;11875;49.356;2.718;2023-04-06T08:20:34;20.50;;;13.57;;
23404;SDS011;11875;49.356;2.718;2023-04-06T08:23:00;28.03;;;13.77;;
23404;SDS011;11875;49.356;2.718;2023-04-06T08:25:26;26.27;;;12.70;;
23404;SDS011;11875;49.356;2.718;2023-04-06T08:27:52;19.87;;;13.43;;
23404;SDS011;11875;49.356;2.718;2023-04-06T08:30:17;18.83;;;12.43;;
23404;SDS011;11875;49.356;2.718;2023-04-06T08:32:44;18.67;;;11.53;;
23404;SDS011;11875;49.356;2.718;2023-04-06T08:35:10;16.80;;;11.03;;
23404;SDS011;11875;49.356;2.718;2023-04-06T08:37:36;16.77;;;10.33;;
23404;SDS011;11875;49.356;2.718;2023-04-06T08:40:01;12.97;;;9.77;;
23404;SDS011;11875;49.356;2.718;2023-04-06T08:42:28;15.70;;;10.87;;
23404;SDS011;11875;49.356;2.718;2023-04-06T08:44:57;19.17;;;11.63;;
23404;SDS011;11875;49.356;2.718;2023-04-06T08:47:23;16.23;;;10.50;;
23404;SDS011;11875;49.356;2.718;2023-04-06T08:49:49;22.23;;;13.17;;
23404;SDS011;11875;49.356;2.718;2023-04-06T08:52:17;16.70;;;11.30;;
23404;SDS011;11875;49.356;2.718;2023-04-06T08:54:44;16.97;;;10.43;;
23404;SDS011;11875;49.356;2.718;2023-04-06T08:57:09;21.70;;;11.93;;
23404;SDS011;11875;49.356;2.718;2023-04-06T08:59:36;20.30;;;12.27;;
23404;SDS011;11875;49.356;2.718;2023-04-06T09:02:03;18.37;;;11.93;;
23404;SDS011;11875;49.356;2.718;2023-04-06T09:04:30;15.67;;;10.77;;
23404;SDS011;11875;49.356;2.718;2023-04-06T09:06:58;17.63;;;11.23;;
23404;SDS011;11875;49.356;2.718;2023-04-06T09:09:24;19.23;;;12.10;;
23404;SDS011;11875;49.356;2.718;2023-04-06T09:11:50;19.07;;;12.33;;
23404;SDS011;11875;49.356;2.718;2023-04-06T09:14:32;18.60;;;12.17;;
23404;SDS011;11875;49.356;2.718;2023-04-06T09:17:04;17.87;;;13.57;;
23404;SDS011;11875;49.356;2.718;2023-04-06T09:19:30;22.13;;;12.20;;
23404;SDS011;11875;49.356;2.718;2023-04-06T09:22:05;18.53;;;12.23;;
23404;SDS011;11875;49.356;2.718;2023-04-06T09:24:44;19.17;;;12.23;;
23404;SDS011;11875;49.356;2.718;2023-04-06T09:27:14;18.63;;;11.43;;
23404;SDS011;11875;49.356;2.718;2023-04-06T09:29:41;17.33;;;12.07;;
23404;SDS011;11875;49.356;2.718;2023-04-06T09:32:07;17.60;;;11.23;;
23404;SDS011;11875;49.356;2.718;2023-04-06T09:34:39;17.30;;;11.60;;
23404;SDS011;11875;49.356;2.718;2023-04-06T09:37:15;16.87;;;10.73;;
23404;SDS011;11875;49.356;2.718;2023-04-06T09:39:42;18.10;;;10.93;;
23404;SDS011;11875;49.356;2.718;2023-04-06T09:42:09;21.67;;;12.03;;
23404;SDS011;11875;49.356;2.718;2023-04-06T09:44:35;16.80;;;10.73;;
23404;SDS011;11875;49.356;2.718;2023-04-06T09:47:01;17.17;;;11.40;;
23404;SDS011;11875;49.356;2.718;2023-04-06T09:49:31;19.93;;;11.37;;
23404;SDS011;11875;49.356;2.718;2023-04-06T09:52:00;18.37;;;11.53;;
23404;SDS011;11875;49.356;2.718;2023-04-06T09:54:30;20.17;;;11.73;;
23404;SDS011;11875;49.356;2.718;2023-04-06T10:08:08;22.10;;;14.07;;
23404;SDS011;11875;49.356;2.718;2023-04-06T10:10:37;20.70;;;13.60;;
23404;SDS011;11875;49.356;2.718;2023-04-06T10:13:06;20.40;;;12.93;;
23404;SDS011;11875;49.356;2.718;2023-04-06T10:15:32;21.23;;;13.60;;
23404;SDS011;11875;49.356;2.718;2023-04-06T10:17:58;21.00;;;13.50;;
23404;SDS011;11875;49.356;2.718;2023-04-06T10:20:46;20.33;;;13.03;;
23404;SDS011;11875;49.356;2.718;2023-04-06T10:23:18;17.40;;;11.87;;
23404;SDS011;11875;49.356;2.718;2023-04-06T10:25:52;22.13;;;13.83;;
23404;SDS011;11875;49.356;2.718;2023-04-06T10:28:19;25.27;;;15.87;;
23404;SDS011;11875;49.356;2.718;2023-04-06T10:30:45;21.13;;;14.53;;
23404;SDS011;11875;49.356;2.718;2023-04-06T10:33:13;19.07;;;13.50;;
23404;SDS011;11875;49.356;2.718;2023-04-06T10:35:40;21.70;;;13.30;;
23404;SDS011;11875;49.356;2.718;2023-04-06T10:38:06;19.23;;;12.73;;
23404;SDS011;11875;49.356;2.718;2023-04-06T10:40:32;17.83;;;11.73;;
23404;SDS011;11875;49.356;2.718;2023-04-06T10:45:35;17.60;;;11.60;;
23404;SDS011;11875;49.356;2.718;2023-04-06T10:48:01;21.73;;;12.70;;
23404;SDS011;11875;49.356;2.718;2023-04-06T10:50:39;19.27;;;11.37;;
23404;SDS011;11875;49.356;2.718;2023-04-06T10:53:05;24.33;;;13.30;;
23404;SDS011;11875;49.356;2.718;2023-04-06T10:55:31;18.87;;;12.70;;
23404;SDS011;11875;49.356;2.718;2023-04-06T10:57:57;22.03;;;13.90;;
23404;SDS011;11875;49.356;2.718;2023-04-06T11:00:23;20.70;;;12.80;;
23404;SDS011;11875;49.356;2.718;2023-04-06T11:02:49;16.57;;;11.60;;
23404;SDS011;11875;49.356;2.718;2023-04-06T11:05:15;20.73;;;12.43;;
23404;SDS011;11875;49.356;2.718;2023-04-06T11:07:41;19.90;;;12.80;;
23404;SDS011;11875;49.356;2.718;2023-04-06T11:10:07;21.30;;;12.23;;
23404;SDS011;11875;49.356;2.718;2023-04-06T11:12:33;22.03;;;12.10;;
23404;SDS011;11875;49.356;2.718;2023-04-06T11:15:02;19.27;;;11.60;;
23404;SDS011;11875;49.356;2.718;2023-04-06T11:17:32;16.10;;;12.33;;
23404;SDS011;11875;49.356;2.718;2023-04-06T11:20:01;15.53;;;10.37;;
23404;SDS011;11875;49.356;2.718;2023-04-06T11:22:28;16.40;;;10.23;;
23404;SDS011;11875;49.356;2.718;2023-04-06T11:25:05;16.73;;;10.07;;
23404;SDS011;11875;49.356;2.718;2023-04-06T11:27:32;16.50;;;9.60;;
23404;SDS011;11875;49.356;2.718;2023-04-06T11:29:59;14.70;;;10.88;;
23404;SDS011;11875;49.356;2.718;2023-04-06T11:32:25;21.40;;;12.13;;
23404;SDS011;11875;49.356;2.718;2023-04-06T11:34:51;11.57;;;7.80;;
23404;SDS011;11875;49.356;2.718;2023-04-06T11:37:17;25.65;;;15.10;;
23404;SDS011;11875;49.356;2.718;2023-04-06T11:39:50;13.35;;;9.40;;
23404;SDS011;11875;49.356;2.718;2023-04-06T11:42:35;14.20;;;9.68;;
23404;SDS011;11875;49.356;2.718;2023-04-06T11:45:01;11.98;;;7.88;;
23404;SDS011;11875;49.356;2.718;2023-04-06T11:47:30;16.00;;;10.23;;
23404;SDS011;11875;49.356;2.718;2023-04-06T11:50:08;10.25;;;6.35;;
23404;SDS011;11875;49.356;2.718;2023-04-06T11:52:35;11.50;;;6.93;;
23404;SDS011;11875;49.356;2.718;2023-04-06T11:55:10;30.10;;;18.20;;
23404;SDS011;11875;49.356;2.718;2023-04-06T11:57:40;8.52;;;6.53;;
23404;SDS011;11875;49.356;2.718;2023-04-06T12:00:07;16.70;;;10.18;;
23404;SDS011;11875;49.356;2.718;2023-04-06T12:02:34;7.90;;;5.90;;
23404;SDS011;11875;49.356;2.718;2023-04-06T12:05:02;11.25;;;7.00;;
23404;SDS011;11875;49.356;2.718;2023-04-06T12:07:30;7.93;;;5.28;;
23404;SDS011;11875;49.356;2.718;2023-04-06T12:09:56;10.30;;;5.18;;
23404;SDS011;11875;49.356;2.718;2023-04-06T12:12:21;7.95;;;5.05;;
23404;SDS011;11875;49.356;2.718;2023-04-06T12:14:47;7.88;;;4.60;;
23404;SDS011;11875;49.356;2.718;2023-04-06T12:17:13;7.43;;;4.40;;
23404;SDS011;11875;49.356;2.718;2023-04-06T12:19:38;8.00;;;4.88;;
23404;SDS011;11875;49.356;2.718;2023-04-06T12:22:04;5.50;;;4.13;;
23404;SDS011;11875;49.356;2.718;2023-04-06T12:24:30;7.13;;;3.65;;
23404;SDS011;11875;49.356;2.718;2023-04-06T12:26:55;7.18;;;3.60;;
23404;SDS011;11875;49.356;2.718;2023-04-06T12:29:22;9.05;;;3.75;;
23404;SDS011;11875;49.356;2.718;2023-04-06T12:31:48;7.30;;;3.78;;
23404;SDS011;11875;49.356;2.718;2023-04-06T12:34:14;4.53;;;2.75;;
23404;SDS011;11875;49.356;2.718;2023-04-06T12:36:40;6.35;;;4.00;;
23404;SDS011;11875;49.356;2.718;2023-04-06T12:39:05;7.97;;;3.55;;
23404;SDS011;11875;49.356;2.718;2023-04-06T12:41:31;5.57;;;3.00;;
23404;SDS011;11875;49.356;2.718;2023-04-06T12:43:57;6.32;;;3.00;;
23404;SDS011;11875;49.356;2.718;2023-04-06T12:46:24;6.03;;;2.92;;
23404;SDS011;11875;49.356;2.718;2023-04-06T12:48:50;4.50;;;3.10;;
23404;SDS011;11875;49.356;2.718;2023-04-06T12:51:18;7.63;;;2.83;;
23404;SDS011;11875;49.356;2.718;2023-04-06T12:53:44;8.18;;;2.95;;
23404;SDS011;11875;49.356;2.718;2023-04-06T12:56:14;8.98;;;3.00;;
23404;SDS011;11875;49.356;2.718;2023-04-06T12:58:45;6.78;;;3.22;;
23404;SDS011;11875;49.356;2.718;2023-04-06T13:01:11;6.03;;;2.35;;
23404;SDS011;11875;49.356;2.718;2023-04-06T13:03:41;4.68;;;2.58;;
23404;SDS011;11875;49.356;2.718;2023-04-06T13:06:07;7.53;;;2.80;;
23404;SDS011;11875;49.356;2.718;2023-04-06T13:08:33;8.98;;;2.67;;
23404;SDS011;11875;49.356;2.718;2023-04-06T13:11:00;6.00;;;2.58;;
23404;SDS011;11875;49.356;2.718;2023-04-06T13:13:27;6.78;;;2.30;;
23404;SDS011;11875;49.356;2.718;2023-04-06T13:15:55;6.32;;;2.45;;
23404;SDS011;11875;49.356;2.718;2023-04-06T13:18:24;5.70;;;2.72;;
23404;SDS011;11875;49.356;2.718;2023-04-06T13:20:50;7.47;;;3.03;;
23404;SDS011;11875;49.356;2.718;2023-04-06T13:23:16;17.23;;;8.73;;
23404;SDS011;11875;49.356;2.718;2023-04-06T13:25:41;7.47;;;3.45;;
23404;SDS011;11875;49.356;2.718;2023-04-06T13:28:08;10.82;;;4.28;;
23404;SDS011;11875;49.356;2.718;2023-04-06T13:30:34;8.25;;;2.90;;
23404;SDS011;11875;49.356;2.718;2023-04-06T13:33:01;7.85;;;3.00;;
23404;SDS011;11875;49.356;2.718;2023-04-06T13:35:27;6.35;;;2.72;;
23404;SDS011;11875;49.356;2.718;2023-04-06T13:37:53;15.70;;;8.77;;
23404;SDS011;11875;49.356;2.718;2023-04-06T13:40:18;14.02;;;4.60;;
23404;SDS011;11875;49.356;2.718;2023-04-06T13:42:44;22.88;;;10.48;;
23404;SDS011;11875;49.356;2.718;2023-04-06T13:45:11;11.68;;;6.43;;
23404;SDS011;11875;49.356;2.718;2023-04-06T13:47:37;9.10;;;2.38;;
23404;SDS011;11875;49.356;2.718;2023-04-06T13:50:03;10.80;;;5.82;;
23404;SDS011;11875;49.356;2.718;2023-04-06T13:52:29;10.20;;;5.25;;
23404;SDS011;11875;49.356;2.718;2023-04-06T13:54:55;10.48;;;3.30;;
23404;SDS011;11875;49.356;2.718;2023-04-06T13:57:20;13.30;;;8.02;;
23404;SDS011;11875;49.356;2.718;2023-04-06T13:59:46;5.88;;;2.47;;
23404;SDS011;11875;49.356;2.718;2023-04-06T14:02:12;6.85;;;2.05;;
23404;SDS011;11875;49.356;2.718;2023-04-06T14:04:37;7.90;;;2.30;;
23404;SDS011;11875;49.356;2.718;2023-04-06T14:07:04;7.53;;;2.40;;
23404;SDS011;11875;49.356;2.718;2023-04-06T14:09:32;6.18;;;2.22;;
23404;SDS011;11875;49.356;2.718;2023-04-06T14:11:58;6.85;;;2.40;;
23404;SDS011;11875;49.356;2.718;2023-04-06T14:14:24;8.45;;;2.20;;
23404;SDS011;11875;49.356;2.718;2023-04-06T14:16:51;5.90;;;1.90;;
23404;SDS011;11875;49.356;2.718;2023-04-06T14:19:17;8.68;;;2.35;;
23404;SDS011;11875;49.356;2.718;2023-04-06T14:21:44;8.40;;;3.75;;
23404;SDS011;11875;49.356;2.718;2023-04-06T14:24:10;9.20;;;2.80;;
23404;SDS011;11875;49.356;2.718;2023-04-06T14:26:37;6.28;;;2.80;;
23404;SDS011;11875;49.356;2.718;2023-04-06T14:29:03;5.57;;;2.58;;
23404;SDS011;11875;49.356;2.718;2023-04-06T14:31:30;6.28;;;2.50;;
23404;SDS011;11875;49.356;2.718;2023-04-06T14:33:56;8.40;;;2.90;;
23404;SDS011;11875;49.356;2.718;2023-04-06T14:36:22;10.50;;;3.50;;